createdAt,value
2017-12-31T00:04:07.928Z,13.00
2017-12-31T00:06:34.698Z,14.93
2017-12-31T00:09:06.108Z,14.77
2017-12-31T00:11:32.789Z,14.17
2017-12-31T00:13:59.544Z,12.90
2017-12-31T00:19:30.018Z,14.23
2017-12-31T00:24:48.857Z,14.47
2017-12-31T00:27:17.539Z,13.00
2017-12-31T00:29:45.297Z,13.27
2017-12-31T00:32:12.040Z,11.50
2017-12-31T00:34:38.717Z,12.30
2017-12-31T00:37:05.409Z,11.00
2017-12-31T00:39:38.833Z,11.37
2017-12-31T00:42:06.026Z,12.87
2017-12-31T00:44:34.680Z,10.47
2017-12-31T00:47:08.208Z,10.77
2017-12-31T00:49:36.933Z,11.10
2017-12-31T00:52:04.554Z,10.83
2017-12-31T00:54:37.057Z,11.17
2017-12-31T00:57:05.792Z,9.73
2017-12-31T00:59:41.118Z,10.03
2017-12-31T01:02:14.643Z,10.47
2017-12-31T01:04:41.363Z,10.37
2017-12-31T01:07:10.120Z,9.87
2017-12-31T01:09:38.784Z,10.37
2017-12-31T01:12:13.433Z,9.53
2017-12-31T01:14:41.172Z,11.33
2017-12-31T01:17:07.866Z,9.30
2017-12-31T01:19:51.686Z,10.93
2017-12-31T01:22:20.695Z,10.13
2017-12-31T01:24:48.493Z,11.37
2017-12-31T01:27:19.940Z,10.57
2017-12-31T01:29:51.584Z,10.63
2017-12-31T01:32:20.279Z,11.73
2017-12-31T01:34:50.396Z,11.53
2017-12-31T01:37:33.758Z,12.50
2017-12-31T01:45:38.676Z,12.23
2017-12-31T01:48:05.418Z,12.43
2017-12-31T01:50:32.158Z,12.03
2017-12-31T01:52:58.858Z,12.97
2017-12-31T01:55:25.581Z,13.27
2017-12-31T01:58:01.138Z,13.20
2017-12-31T02:00:31.996Z,12.70
2017-12-31T02:02:59.701Z,14.23
2017-12-31T02:05:26.417Z,12.97
2017-12-31T02:07:58.786Z,12.80
2017-12-31T02:10:31.422Z,12.27
2017-12-31T02:12:59.134Z,12.27
2017-12-31T02:15:25.820Z,11.93
2017-12-31T02:17:54.570Z,12.47
2017-12-31T02:20:23.398Z,12.17
2017-12-31T02:22:50.154Z,10.77
2017-12-31T02:28:05.974Z,9.67
2017-12-31T02:30:34.700Z,11.00
2017-12-31T02:35:49.398Z,10.83
2017-12-31T02:41:13.894Z,11.03
2017-12-31T02:43:41.618Z,11.07
2017-12-31T02:46:09.332Z,11.10
2017-12-31T02:48:36.076Z,10.30
2017-12-31T02:51:02.808Z,10.17
2017-12-31T02:53:29.522Z,10.83
2017-12-31T02:55:57.242Z,10.40
2017-12-31T02:58:23.938Z,10.50
2017-12-31T03:00:50.670Z,10.17
2017-12-31T03:03:17.467Z,9.70
2017-12-31T03:05:44.165Z,10.23
2017-12-31T03:08:10.853Z,8.87
2017-12-31T03:10:37.598Z,9.27
2017-12-31T03:13:04.308Z,9.43
2017-12-31T03:15:31.047Z,8.77
2017-12-31T03:17:59.503Z,8.83
2017-12-31T03:20:26.188Z,8.53
2017-12-31T03:22:52.908Z,9.10
2017-12-31T03:25:19.659Z,10.03
2017-12-31T03:27:46.406Z,9.43
2017-12-31T03:30:13.153Z,10.10
2017-12-31T03:32:39.933Z,10.93
2017-12-31T03:35:06.634Z,11.20
2017-12-31T03:37:33.336Z,10.00
2017-12-31T03:40:00.060Z,10.73
2017-12-31T03:42:26.770Z,10.57
2017-12-31T03:44:53.498Z,11.40
2017-12-31T03:47:20.246Z,10.50
2017-12-31T03:49:46.936Z,11.23
2017-12-31T03:52:13.639Z,11.00
2017-12-31T03:54:40.414Z,11.17
2017-12-31T03:57:07.119Z,9.23
2017-12-31T03:59:34.782Z,9.67
2017-12-31T04:02:01.519Z,11.17
2017-12-31T04:04:28.215Z,10.07
2017-12-31T04:06:54.934Z,10.87
2017-12-31T04:09:21.726Z,10.53
2017-12-31T04:11:48.423Z,9.83
2017-12-31T04:14:15.155Z,10.47
2017-12-31T04:16:41.890Z,10.60
2017-12-31T04:19:08.574Z,10.90
2017-12-31T04:24:32.119Z,11.37
2017-12-31T04:29:48.576Z,11.23
2017-12-31T04:32:16.278Z,11.10
2017-12-31T04:34:46.076Z,12.63
2017-12-31T04:37:24.702Z,12.47
2017-12-31T04:39:55.722Z,12.47
2017-12-31T04:42:25.563Z,13.07
2017-12-31T04:44:53.191Z,11.57
2017-12-31T04:47:19.882Z,12.17
2017-12-31T04:49:48.570Z,13.10
2017-12-31T04:52:20.283Z,13.20
2017-12-31T04:54:47.987Z,14.20
2017-12-31T04:57:15.666Z,13.03
2017-12-31T04:59:48.309Z,14.30
2017-12-31T05:02:27.399Z,15.20
2017-12-31T05:05:04.217Z,15.80
2017-12-31T05:07:32.024Z,14.83
2017-12-31T05:09:59.410Z,14.97
2017-12-31T05:12:27.134Z,14.90
2017-12-31T05:14:53.945Z,14.00
2017-12-31T05:20:06.017Z,14.40
2017-12-31T05:22:32.735Z,14.70
2017-12-31T05:25:00.370Z,14.63
2017-12-31T05:30:29.502Z,15.50
2017-12-31T05:32:57.230Z,15.80
2017-12-31T05:35:25.881Z,16.27
2017-12-31T05:37:53.550Z,15.87
2017-12-31T05:40:20.309Z,15.77
2017-12-31T05:42:47.036Z,15.30
2017-12-31T05:45:13.766Z,15.23
2017-12-31T05:47:40.971Z,16.13
2017-12-31T05:50:07.684Z,18.87
2017-12-31T05:52:34.479Z,17.47
2017-12-31T05:55:02.215Z,15.43
2017-12-31T05:57:28.940Z,14.70
2017-12-31T05:59:55.669Z,15.00
2017-12-31T06:02:22.720Z,15.17
2017-12-31T06:04:49.467Z,17.37
2017-12-31T06:07:16.148Z,15.10
2017-12-31T06:09:42.864Z,15.23
2017-12-31T06:12:09.607Z,13.87
2017-12-31T06:14:46.310Z,14.77
2017-12-31T06:17:13.021Z,14.93
2017-12-31T06:19:39.710Z,13.73
2017-12-31T06:22:06.671Z,14.63
2017-12-31T06:24:33.374Z,15.80
2017-12-31T06:27:08.206Z,13.93
2017-12-31T06:29:34.995Z,13.27
2017-12-31T06:32:11.744Z,12.77
2017-12-31T06:34:39.443Z,13.67
2017-12-31T06:37:06.173Z,14.33
2017-12-31T06:39:46.861Z,14.37
2017-12-31T06:42:19.835Z,14.40
2017-12-31T06:44:46.622Z,15.07
2017-12-31T06:47:19.595Z,15.10
2017-12-31T06:49:53.392Z,13.30
2017-12-31T06:52:20.071Z,14.57
2017-12-31T06:54:50.032Z,15.87
2017-12-31T06:57:16.775Z,16.30
2017-12-31T06:59:51.408Z,14.07
2017-12-31T07:02:24.994Z,14.80
2017-12-31T07:04:51.721Z,13.73
2017-12-31T07:07:18.484Z,13.70
2017-12-31T07:09:45.249Z,13.80
2017-12-31T07:12:11.966Z,13.13
2017-12-31T07:14:38.708Z,14.80
2017-12-31T07:17:19.967Z,14.13
2017-12-31T07:19:51.235Z,14.63
2017-12-31T07:22:17.957Z,13.83
2017-12-31T07:24:44.646Z,13.73
2017-12-31T07:27:12.290Z,13.57
2017-12-31T07:29:40.021Z,12.67
2017-12-31T07:32:10.491Z,14.37
2017-12-31T07:34:43.274Z,14.37
2017-12-31T07:37:09.979Z,13.67
2017-12-31T07:39:44.894Z,13.23
2017-12-31T07:47:52.790Z,15.47
2017-12-31T07:50:24.709Z,16.47
2017-12-31T07:52:51.406Z,16.70
2017-12-31T07:55:18.454Z,16.87
2017-12-31T07:58:03.905Z,17.20
2017-12-31T08:00:32.643Z,17.03
2017-12-31T08:02:59.394Z,17.87
2017-12-31T08:05:33.006Z,17.80
2017-12-31T08:08:10.899Z,20.57
2017-12-31T08:10:37.595Z,17.67
2017-12-31T08:15:50.477Z,19.47
2017-12-31T08:18:17.206Z,17.03
2017-12-31T08:20:43.915Z,15.63
2017-12-31T08:23:10.626Z,15.37
2017-12-31T08:25:37.352Z,16.30
2017-12-31T08:28:04.113Z,16.80
2017-12-31T08:30:30.811Z,16.60
2017-12-31T08:32:57.583Z,16.80
2017-12-31T08:35:24.280Z,18.97
2017-12-31T08:38:05.611Z,19.70
2017-12-31T08:40:36.883Z,19.00
2017-12-31T08:43:03.607Z,19.60
2017-12-31T08:45:30.314Z,18.73
2017-12-31T08:48:10.375Z,20.53
2017-12-31T08:50:37.158Z,20.20
2017-12-31T08:53:03.843Z,16.13
2017-12-31T08:55:30.619Z,15.63
2017-12-31T09:00:42.803Z,15.67
2017-12-31T09:03:18.191Z,16.83
2017-12-31T09:05:44.987Z,14.77
2017-12-31T09:08:13.655Z,16.23
2017-12-31T09:10:53.760Z,15.10
2017-12-31T09:13:20.467Z,15.67
2017-12-31T09:18:41.179Z,18.43
2017-12-31T09:21:07.927Z,16.60
2017-12-31T09:23:34.623Z,18.17
2017-12-31T09:26:06.325Z,17.53
2017-12-31T09:28:37.157Z,17.80
2017-12-31T09:31:03.915Z,20.57
2017-12-31T09:33:31.149Z,21.87
2017-12-31T09:35:58.903Z,24.40
2017-12-31T09:38:27.993Z,24.30
2017-12-31T09:40:56.921Z,22.03
2017-12-31T09:43:24.233Z,21.37
2017-12-31T09:45:51.089Z,22.77
2017-12-31T09:48:17.831Z,25.50
2017-12-31T09:50:44.597Z,25.20
2017-12-31T09:53:11.297Z,25.47
2017-12-31T09:55:40.023Z,21.40
2017-12-31T09:58:06.784Z,20.17
2017-12-31T10:00:33.491Z,20.80
2017-12-31T10:03:00.175Z,21.63
2017-12-31T10:05:26.882Z,21.50
2017-12-31T10:07:57.279Z,22.47
2017-12-31T10:10:23.969Z,21.27
2017-12-31T10:12:50.693Z,20.77
2017-12-31T10:15:26.191Z,20.03
2017-12-31T10:17:53.003Z,22.00
2017-12-31T10:20:25.207Z,19.97
2017-12-31T10:22:55.596Z,21.17
2017-12-31T10:25:22.291Z,21.07
2017-12-31T10:27:48.977Z,22.37
2017-12-31T10:30:15.775Z,21.10
2017-12-31T10:38:24.462Z,26.10
2017-12-31T10:40:51.199Z,26.40
2017-12-31T10:43:17.943Z,25.80
2017-12-31T10:45:47.866Z,27.87
2017-12-31T10:48:14.611Z,28.80
2017-12-31T10:50:41.303Z,27.67
2017-12-31T10:53:14.659Z,28.80
2017-12-31T10:55:41.355Z,29.23
2017-12-31T10:58:14.959Z,32.03
2017-12-31T11:00:41.741Z,42.00
2017-12-31T11:03:08.436Z,49.23
2017-12-31T11:05:35.175Z,41.07
2017-12-31T11:08:01.861Z,32.70
2017-12-31T11:10:40.031Z,44.27
2017-12-31T11:13:06.723Z,42.53
2017-12-31T11:15:33.415Z,42.97
2017-12-31T11:18:00.163Z,37.93
2017-12-31T11:20:26.856Z,32.60
2017-12-31T11:22:53.771Z,30.93
2017-12-31T11:25:20.503Z,30.27
2017-12-31T11:27:47.209Z,30.67
2017-12-31T11:30:13.907Z,31.43
2017-12-31T11:32:40.631Z,30.57
2017-12-31T11:35:07.311Z,30.10
2017-12-31T11:37:34.013Z,31.03
2017-12-31T11:40:00.778Z,32.23
2017-12-31T11:42:28.387Z,32.57
2017-12-31T11:44:55.061Z,34.00
2017-12-31T11:47:28.449Z,30.57
2017-12-31T11:49:55.867Z,31.90
2017-12-31T11:52:22.715Z,33.43
2017-12-31T11:54:49.690Z,31.73
2017-12-31T11:57:27.727Z,28.73
2017-12-31T11:59:54.474Z,32.57
2017-12-31T12:02:21.149Z,28.27
2017-12-31T12:04:47.841Z,31.40
2017-12-31T12:07:14.555Z,30.13
2017-12-31T12:09:41.253Z,32.90
2017-12-31T12:12:08.035Z,35.57
2017-12-31T12:14:34.765Z,33.77
2017-12-31T12:17:04.717Z,31.70
2017-12-31T12:19:31.403Z,29.47
2017-12-31T12:22:00.095Z,33.83
2017-12-31T12:24:26.799Z,34.47
2017-12-31T12:26:53.496Z,34.57
2017-12-31T12:29:20.237Z,36.40
2017-12-31T12:31:46.961Z,33.97
2017-12-31T12:34:13.674Z,35.63
2017-12-31T12:36:40.387Z,35.53
2017-12-31T12:39:07.083Z,35.00
2017-12-31T12:41:33.761Z,32.57
2017-12-31T12:44:10.249Z,34.87
2017-12-31T12:46:36.955Z,35.63
2017-12-31T12:49:03.655Z,35.17
2017-12-31T12:51:30.369Z,32.87
2017-12-31T12:53:57.145Z,34.67
2017-12-31T12:56:23.873Z,33.53
2017-12-31T12:58:50.614Z,35.93
2017-12-31T13:01:19.337Z,32.87
2017-12-31T13:03:46.021Z,33.13
2017-12-31T13:06:30.211Z,30.83
2017-12-31T13:08:56.968Z,31.60
2017-12-31T13:11:23.709Z,30.53
2017-12-31T13:13:50.455Z,31.13
2017-12-31T13:16:17.145Z,32.37
2017-12-31T13:18:43.829Z,33.23
2017-12-31T13:21:10.592Z,33.07
2017-12-31T13:23:37.306Z,32.53
2017-12-31T13:26:04.002Z,32.67
2017-12-31T13:28:30.753Z,34.57
2017-12-31T13:31:05.187Z,32.07
2017-12-31T13:33:31.905Z,35.43
2017-12-31T13:35:58.587Z,31.33
2017-12-31T13:38:25.280Z,30.03
2017-12-31T13:41:00.524Z,35.27
2017-12-31T13:43:27.209Z,30.90
2017-12-31T13:45:53.959Z,30.30
2017-12-31T13:48:20.682Z,32.40
2017-12-31T13:50:47.365Z,30.53
2017-12-31T13:53:14.052Z,34.30
2017-12-31T13:55:40.785Z,34.87
2017-12-31T13:58:08.331Z,37.17
2017-12-31T14:00:35.033Z,32.80
2017-12-31T14:03:01.760Z,35.17
2017-12-31T14:05:28.439Z,35.27
2017-12-31T14:07:55.129Z,36.17
2017-12-31T14:10:21.887Z,33.90
2017-12-31T14:12:48.608Z,38.50
2017-12-31T14:15:15.280Z,36.93
2017-12-31T14:17:42.018Z,32.53
2017-12-31T14:20:08.737Z,26.47
2017-12-31T14:22:35.660Z,27.77
2017-12-31T14:25:02.903Z,27.83
2017-12-31T14:27:29.585Z,26.00
2017-12-31T14:29:56.262Z,25.53
2017-12-31T14:32:22.996Z,28.47
2017-12-31T14:34:49.700Z,28.87
2017-12-31T14:37:16.400Z,27.57
2017-12-31T14:39:43.144Z,29.83
2017-12-31T14:42:09.820Z,30.53
2017-12-31T14:44:36.499Z,29.40
2017-12-31T14:47:03.222Z,29.80
2017-12-31T14:49:29.936Z,29.30
2017-12-31T14:51:56.634Z,31.83
2017-12-31T14:54:23.360Z,34.07
2017-12-31T14:56:50.050Z,31.70
2017-12-31T14:59:16.738Z,31.77
2017-12-31T15:01:43.482Z,29.33
2017-12-31T15:04:10.202Z,32.57
2017-12-31T15:06:36.904Z,31.03
2017-12-31T15:09:03.682Z,32.10
2017-12-31T15:11:30.362Z,34.33
2017-12-31T15:13:57.072Z,31.20
2017-12-31T15:16:24.809Z,33.13
2017-12-31T15:21:42.384Z,31.53
2017-12-31T15:32:30.572Z,33.07
2017-12-31T15:34:57.312Z,39.20
2017-12-31T15:37:23.998Z,45.93
2017-12-31T15:39:51.507Z,47.70
2017-12-31T15:42:18.221Z,46.73
2017-12-31T15:44:44.988Z,49.60
2017-12-31T15:47:11.758Z,52.00
2017-12-31T15:49:38.475Z,55.47
2017-12-31T15:52:05.154Z,50.87
2017-12-31T15:54:31.927Z,58.63
2017-12-31T15:56:58.606Z,56.97
2017-12-31T15:59:25.300Z,59.13
2017-12-31T16:01:52.027Z,60.40
2017-12-31T16:04:18.740Z,60.43
2017-12-31T16:06:46.390Z,61.20
2017-12-31T16:09:13.717Z,59.67
2017-12-31T16:11:40.772Z,57.60
2017-12-31T16:14:19.262Z,57.97
2017-12-31T16:16:58.814Z,56.90
2017-12-31T16:19:26.326Z,60.50
2017-12-31T16:21:53.014Z,54.70
2017-12-31T16:24:19.722Z,53.03
2017-12-31T16:26:46.879Z,55.80
2017-12-31T16:29:13.574Z,53.13
2017-12-31T16:31:40.273Z,55.80
2017-12-31T16:34:07.006Z,56.50
2017-12-31T16:36:33.705Z,55.63
2017-12-31T16:39:09.743Z,53.17
2017-12-31T16:41:36.450Z,52.50
2017-12-31T16:44:03.130Z,53.10
2017-12-31T16:46:29.874Z,52.80
2017-12-31T16:48:56.576Z,46.03
2017-12-31T16:51:23.270Z,41.50
2017-12-31T16:53:50.027Z,46.37
2017-12-31T16:56:16.720Z,44.60
2017-12-31T16:58:44.372Z,40.70
2017-12-31T17:01:11.118Z,38.90
2017-12-31T17:03:47.816Z,36.90
2017-12-31T17:06:14.556Z,37.77
2017-12-31T17:08:41.252Z,32.77
2017-12-31T17:11:07.946Z,33.03
2017-12-31T17:13:34.712Z,31.30
2017-12-31T17:16:01.485Z,29.50
2017-12-31T17:18:28.172Z,31.17
2017-12-31T17:20:59.352Z,34.00
2017-12-31T17:23:26.058Z,32.17
2017-12-31T17:25:52.776Z,33.67
2017-12-31T17:28:24.090Z,37.00
2017-12-31T17:30:50.784Z,28.00
2017-12-31T17:33:22.962Z,27.23
2017-12-31T17:35:49.724Z,29.40
2017-12-31T17:38:16.434Z,27.70
2017-12-31T17:40:58.626Z,27.63
2017-12-31T17:43:32.694Z,28.67
2017-12-31T17:45:59.520Z,23.60
2017-12-31T17:48:26.226Z,23.93
2017-12-31T17:50:52.908Z,21.73
2017-12-31T17:53:28.977Z,22.20
2017-12-31T17:55:55.700Z,23.90
2017-12-31T17:58:22.438Z,44.30
2017-12-31T18:00:49.168Z,38.03
2017-12-31T18:03:16.656Z,32.37
2017-12-31T18:05:43.336Z,42.97
2017-12-31T18:08:10.102Z,46.33
2017-12-31T18:13:27.068Z,49.93
2017-12-31T18:16:00.158Z,43.73
2017-12-31T18:18:29.664Z,44.93
2017-12-31T18:20:56.350Z,46.10
2017-12-31T18:23:23.310Z,38.50
2017-12-31T18:25:50.094Z,38.33
2017-12-31T18:28:16.786Z,33.27
2017-12-31T18:30:43.535Z,37.60
2017-12-31T18:33:10.304Z,34.50
2017-12-31T18:35:37.258Z,34.60
2017-12-31T18:38:03.968Z,35.50
2017-12-31T18:40:30.700Z,34.57
2017-12-31T18:42:58.176Z,33.78
2017-12-31T18:45:24.882Z,31.57
2017-12-31T18:47:51.636Z,29.63
2017-12-31T18:50:26.156Z,27.77
2017-12-31T18:52:53.228Z,25.90
2017-12-31T18:55:19.932Z,24.93
2017-12-31T18:57:46.624Z,23.53
2017-12-31T19:00:13.354Z,21.80
2017-12-31T19:02:44.670Z,23.20
2017-12-31T19:05:11.368Z,23.13
2017-12-31T19:07:38.138Z,21.53
2017-12-31T19:10:04.858Z,20.90
2017-12-31T19:12:31.896Z,21.87
2017-12-31T19:14:58.700Z,22.33
2017-12-31T19:17:36.935Z,20.97
2017-12-31T19:20:08.068Z,20.97
2017-12-31T19:22:34.778Z,21.97
2017-12-31T19:25:13.196Z,23.30
2017-12-31T19:27:39.994Z,22.37
2017-12-31T19:30:14.414Z,22.70
2017-12-31T19:32:41.130Z,24.33
2017-12-31T19:35:21.439Z,22.73
2017-12-31T19:37:53.642Z,23.73
2017-12-31T19:40:20.393Z,23.90
2017-12-31T19:42:49.286Z,22.73
2017-12-31T19:45:15.982Z,19.43
2017-12-31T19:47:42.743Z,21.23
2017-12-31T19:50:10.418Z,21.97
2017-12-31T19:52:37.929Z,19.60
2017-12-31T19:55:05.784Z,17.33
2017-12-31T19:57:32.540Z,18.67
2017-12-31T20:00:01.292Z,18.93
2017-12-31T20:02:28.028Z,19.27
2017-12-31T20:04:54.784Z,19.10
2017-12-31T20:07:22.580Z,20.57
2017-12-31T20:09:49.307Z,20.13
2017-12-31T20:12:30.246Z,23.07
2017-12-31T20:14:56.992Z,24.43
2017-12-31T20:17:23.690Z,22.23
2017-12-31T20:20:05.386Z,27.43
2017-12-31T20:22:48.933Z,27.47
2017-12-31T20:25:15.696Z,28.83
2017-12-31T20:27:53.534Z,29.57
2017-12-31T20:30:21.239Z,28.20
2017-12-31T20:32:47.966Z,28.53
2017-12-31T20:35:21.582Z,27.97
2017-12-31T20:37:48.282Z,25.53
2017-12-31T20:40:15.005Z,26.43
2017-12-31T20:42:41.734Z,25.23
2017-12-31T20:45:08.458Z,29.13
2017-12-31T20:47:35.159Z,30.13
2017-12-31T20:50:13.740Z,28.07
2017-12-31T20:52:40.435Z,30.03
2017-12-31T20:55:07.193Z,30.67
2017-12-31T20:57:34.009Z,28.30
2017-12-31T21:00:00.714Z,29.13
2017-12-31T21:02:28.468Z,28.37
2017-12-31T21:04:55.227Z,29.70
2017-12-31T21:07:21.929Z,27.13
2017-12-31T21:09:55.909Z,24.50
2017-12-31T21:12:22.630Z,23.90
2017-12-31T21:17:43.408Z,20.33
2017-12-31T21:20:13.608Z,20.17
2017-12-31T21:22:40.291Z,20.23
2017-12-31T21:25:07.018Z,21.40
2017-12-31T21:27:37.202Z,19.03
2017-12-31T21:30:03.910Z,19.20
2017-12-31T21:32:30.645Z,19.13
2017-12-31T21:34:57.411Z,20.87
2017-12-31T21:37:24.256Z,21.73
2017-12-31T21:39:50.972Z,22.73
2017-12-31T21:42:17.722Z,23.53
2017-12-31T21:44:52.243Z,22.40
2017-12-31T21:47:19.015Z,24.33
2017-12-31T21:49:45.706Z,24.23
2017-12-31T21:52:12.419Z,23.50
2017-12-31T21:54:39.154Z,22.37
2017-12-31T21:57:07.179Z,19.67
2017-12-31T21:59:34.599Z,21.50
2017-12-31T22:02:01.410Z,22.13
2017-12-31T22:04:28.131Z,22.63
2017-12-31T22:06:56.835Z,22.63
2017-12-31T22:09:23.643Z,24.77
2017-12-31T22:11:51.237Z,23.83
2017-12-31T22:14:17.966Z,19.97
2017-12-31T22:16:45.751Z,20.93
2017-12-31T22:19:12.447Z,20.30
2017-12-31T22:21:41.075Z,18.27
2017-12-31T22:24:07.890Z,19.40
2017-12-31T22:26:35.629Z,19.70
2017-12-31T22:29:02.359Z,18.37
2017-12-31T22:31:29.127Z,18.60
2017-12-31T22:33:55.827Z,19.07
2017-12-31T22:36:23.101Z,21.57
2017-12-31T22:38:54.378Z,20.20
2017-12-31T22:41:21.285Z,20.67
2017-12-31T22:43:48.104Z,22.13
2017-12-31T22:46:14.904Z,20.47
2017-12-31T22:48:41.829Z,22.00
2017-12-31T22:51:08.681Z,21.63
2017-12-31T22:53:35.498Z,20.27
2017-12-31T22:56:02.345Z,21.10
2017-12-31T22:58:29.266Z,30.23
2017-12-31T23:00:56.874Z,19.90
2017-12-31T23:03:23.579Z,26.07
2017-12-31T23:06:04.209Z,26.30
2017-12-31T23:08:30.966Z,29.03
2017-12-31T23:10:57.782Z,45.53
2017-12-31T23:13:24.847Z,65.73
2017-12-31T23:15:51.546Z,83.27
2017-12-31T23:18:18.297Z,79.20
2017-12-31T23:20:47.062Z,80.80
2017-12-31T23:23:13.773Z,70.00
2017-12-31T23:25:40.488Z,57.37
2017-12-31T23:28:07.235Z,50.40
2017-12-31T23:30:33.937Z,48.80
2017-12-31T23:33:00.649Z,55.87
2017-12-31T23:35:31.438Z,67.67
2017-12-31T23:38:03.167Z,66.33
2017-12-31T23:40:30.863Z,57.70
2017-12-31T23:43:00.227Z,55.47
2017-12-31T23:45:31.366Z,43.33
2017-12-31T23:48:06.783Z,44.17
2017-12-31T23:50:33.495Z,36.07
2017-12-31T23:53:00.201Z,35.07
2017-12-31T23:55:27.813Z,29.33
2017-12-31T23:57:55.550Z,27.27
